createdAt,value
2022-09-07T00:00:50.856Z,1.98
2022-09-07T00:03:18.383Z,1.85
2022-09-07T00:05:48.333Z,2.05
2022-09-07T00:08:19.217Z,1.90
2022-09-07T00:10:54.823Z,2.20
2022-09-07T00:13:23.108Z,2.55
2022-09-07T00:15:50.330Z,3.00
2022-09-07T00:18:17.437Z,2.70
2022-09-07T00:20:44.280Z,2.72
2022-09-07T00:23:11.357Z,2.92
2022-09-07T00:25:40.447Z,2.78
2022-09-07T00:28:09.018Z,2.80
2022-09-07T00:30:42.160Z,3.42
2022-09-07T00:33:09.783Z,3.30
2022-09-07T00:35:41.495Z,2.72
2022-09-07T00:38:09.279Z,2.85
2022-09-07T00:40:36.495Z,3.03
2022-09-07T00:43:04.153Z,2.80
2022-09-07T00:45:31.348Z,2.55
2022-09-07T00:48:18.081Z,2.33
2022-09-07T00:50:50.959Z,2.08
2022-09-07T00:53:28.320Z,2.00
2022-09-07T00:55:57.803Z,2.00
2022-09-07T00:58:25.475Z,1.80
2022-09-07T01:00:52.349Z,1.90
2022-09-07T01:03:29.594Z,1.88
2022-09-07T01:06:13.382Z,1.48
2022-09-07T01:08:43.130Z,1.65
2022-09-07T01:11:11.161Z,1.60
2022-09-07T01:13:43.020Z,1.50
2022-09-07T01:16:31.966Z,1.48
2022-09-07T01:19:26.234Z,1.20
2022-09-07T01:22:33.010Z,1.20
2022-09-07T01:25:48.477Z,1.20
2022-09-07T01:28:28.955Z,1.20
2022-09-07T01:31:42.849Z,1.17
2022-09-07T01:34:28.565Z,1.20
2022-09-07T01:37:19.978Z,1.13
2022-09-07T01:40:00.440Z,1.60
2022-09-07T01:43:08.909Z,1.40
2022-09-07T01:45:42.039Z,1.65
2022-09-07T01:48:16.557Z,1.30
2022-09-07T01:51:13.718Z,1.48
2022-09-07T01:53:50.336Z,1.40
2022-09-07T01:56:34.980Z,1.08
2022-09-07T01:59:35.048Z,1.20
2022-09-07T02:02:10.674Z,1.30
2022-09-07T02:04:48.344Z,1.10
2022-09-07T02:07:27.804Z,1.20
2022-09-07T02:10:13.035Z,0.80
2022-09-07T02:12:53.197Z,1.30
2022-09-07T02:15:38.272Z,1.00
2022-09-07T02:18:07.978Z,1.20
2022-09-07T02:20:39.394Z,1.00
2022-09-07T02:23:22.174Z,0.93
2022-09-07T02:25:59.159Z,1.67
2022-09-07T02:28:33.704Z,1.10
2022-09-07T02:31:01.695Z,1.10
2022-09-07T02:33:29.742Z,1.00
2022-09-07T02:35:57.702Z,1.10
2022-09-07T02:38:25.563Z,1.10
2022-09-07T02:40:55.467Z,1.13
2022-09-07T02:43:25.217Z,1.10
2022-09-07T02:46:35.848Z,1.58
2022-09-07T02:49:21.010Z,1.55
2022-09-07T02:52:52.451Z,1.30
2022-09-07T02:55:56.927Z,1.20
2022-09-07T02:59:02.878Z,1.08
2022-09-07T03:01:50.706Z,0.98
2022-09-07T03:04:46.583Z,1.35
2022-09-07T03:07:22.368Z,1.08
2022-09-07T03:09:54.825Z,1.15
2022-09-07T03:12:21.893Z,1.33
2022-09-07T03:14:49.067Z,1.25
2022-09-07T03:17:16.043Z,1.42
2022-09-07T03:19:42.863Z,1.30
2022-09-07T03:22:09.637Z,1.40
2022-09-07T03:24:36.979Z,1.50
2022-09-07T03:27:03.993Z,1.38
2022-09-07T03:29:30.864Z,1.40
2022-09-07T03:31:57.663Z,1.20
2022-09-07T03:34:24.416Z,1.65
2022-09-07T03:36:51.207Z,1.23
2022-09-07T03:39:20.794Z,1.40
2022-09-07T03:41:47.803Z,1.40
2022-09-07T03:44:14.673Z,1.30
2022-09-07T03:46:41.516Z,1.50
2022-09-07T03:49:08.322Z,1.30
2022-09-07T03:51:35.091Z,1.20
2022-09-07T03:54:02.140Z,1.40
2022-09-07T03:56:28.985Z,1.20
2022-09-07T03:58:56.050Z,0.90
2022-09-07T04:01:25.541Z,0.85
2022-09-07T04:03:53.604Z,0.88
2022-09-07T04:06:20.536Z,0.88
2022-09-07T04:08:47.633Z,1.30
2022-09-07T04:11:18.503Z,0.98
2022-09-07T04:13:46.284Z,1.20
2022-09-07T04:16:26.555Z,1.13
2022-09-07T04:18:54.779Z,1.40
2022-09-07T04:21:24.001Z,1.10
2022-09-07T04:23:51.286Z,1.10
2022-09-07T04:26:31.564Z,1.05
2022-09-07T04:29:01.076Z,1.27
2022-09-07T04:31:28.393Z,1.30
2022-09-07T04:33:56.496Z,1.42
2022-09-07T04:36:24.734Z,1.38
2022-09-07T04:39:00.753Z,1.23
2022-09-07T04:41:30.939Z,1.60
2022-09-07T04:44:00.746Z,1.90
2022-09-07T04:46:33.675Z,1.73
2022-09-07T04:49:09.220Z,1.75
2022-09-07T04:51:38.442Z,2.42
2022-09-07T04:54:06.173Z,2.03
2022-09-07T04:56:33.662Z,2.40
2022-09-07T04:59:03.758Z,1.90
2022-09-07T05:01:31.090Z,1.83
2022-09-07T05:04:01.406Z,2.22
2022-09-07T05:06:28.956Z,2.03
2022-09-07T05:08:56.501Z,2.03
2022-09-07T05:11:29.180Z,2.30
2022-09-07T05:14:01.418Z,2.00
2022-09-07T05:16:30.196Z,2.10
2022-09-07T05:19:02.423Z,2.33
2022-09-07T05:21:33.318Z,2.33
2022-09-07T05:24:01.362Z,2.20
2022-09-07T05:26:31.743Z,2.20
2022-09-07T05:31:49.471Z,2.35
2022-09-07T05:34:32.219Z,2.45
2022-09-07T05:37:00.232Z,2.42
2022-09-07T05:39:27.954Z,2.67
2022-09-07T05:41:55.128Z,2.40
2022-09-07T05:47:09.815Z,2.70
2022-09-07T05:49:37.433Z,2.95
2022-09-07T05:52:04.248Z,2.22
2022-09-07T05:54:31.075Z,2.33
2022-09-07T05:56:57.861Z,2.50
2022-09-07T05:59:24.744Z,2.58
2022-09-07T06:01:51.672Z,2.60
2022-09-07T06:04:18.580Z,2.53
2022-09-07T06:06:59.336Z,3.20
2022-09-07T06:09:32.261Z,2.30
2022-09-07T06:11:59.087Z,2.60
2022-09-07T06:14:25.843Z,2.58
2022-09-07T06:16:53.646Z,2.20
2022-09-07T06:19:20.439Z,2.40
2022-09-07T06:21:47.182Z,2.50
2022-09-07T06:24:14.045Z,2.55
2022-09-07T06:26:40.931Z,2.58
2022-09-07T06:29:10.068Z,2.28
2022-09-07T06:34:24.036Z,2.60
2022-09-07T06:36:50.806Z,3.25
2022-09-07T06:39:17.556Z,3.53
2022-09-07T06:41:59.808Z,4.07
2022-09-07T06:44:31.143Z,3.50
2022-09-07T06:49:28.563Z,4.40
2022-09-07T06:51:55.620Z,4.40
2022-09-07T06:57:09.906Z,4.50
2022-09-07T06:59:38.068Z,4.80
2022-09-07T07:02:07.023Z,4.70
2022-09-07T07:04:39.379Z,5.03
2022-09-07T07:07:12.238Z,4.85
2022-09-07T07:09:40.040Z,5.53
2022-09-07T07:12:07.130Z,5.75
2022-09-07T07:14:37.254Z,5.25
2022-09-07T07:17:08.315Z,5.47
2022-09-07T07:19:35.075Z,4.47
2022-09-07T07:24:48.727Z,5.72
2022-09-07T07:27:15.568Z,5.38
2022-09-07T07:29:45.724Z,5.30
2022-09-07T07:32:12.629Z,5.75
2022-09-07T07:34:58.733Z,5.82
2022-09-07T07:37:28.194Z,6.20
2022-09-07T07:42:42.811Z,6.60
2022-09-07T07:47:58.002Z,6.68
2022-09-07T07:50:32.777Z,6.88
2022-09-07T07:55:47.613Z,6.45
2022-09-07T07:58:14.357Z,6.05
2022-09-07T08:00:54.436Z,8.02
2022-09-07T08:03:23.627Z,6.82
2022-09-07T08:05:50.647Z,7.50
2022-09-07T08:08:18.006Z,8.85
2022-09-07T08:10:47.149Z,8.77
2022-09-07T08:13:15.704Z,8.85
2022-09-07T08:15:46.404Z,8.32
2022-09-07T08:18:16.298Z,8.23
2022-09-07T08:20:43.555Z,8.68
2022-09-07T08:23:10.633Z,9.50
2022-09-07T08:25:37.512Z,9.85
2022-09-07T08:28:05.347Z,9.13
2022-09-07T08:30:32.153Z,9.52
2022-09-07T08:32:58.938Z,9.23
2022-09-07T08:35:25.722Z,8.88
2022-09-07T08:37:52.490Z,9.00
2022-09-07T08:40:20.440Z,8.13
2022-09-07T08:43:16.050Z,8.68
2022-09-07T08:45:54.466Z,10.63
2022-09-07T08:48:33.268Z,9.77
2022-09-07T08:51:19.120Z,8.00
2022-09-07T08:53:50.478Z,9.98
2022-09-07T08:56:31.520Z,8.88
2022-09-07T08:59:09.150Z,8.82
2022-09-07T09:01:44.078Z,8.60
2022-09-07T09:04:31.469Z,8.05
2022-09-07T09:07:31.504Z,8.07
2022-09-07T09:10:19.820Z,8.18
2022-09-07T09:13:09.746Z,7.65
2022-09-07T09:16:10.213Z,8.32
2022-09-07T09:19:12.056Z,9.63
2022-09-07T09:21:40.701Z,7.70
2022-09-07T09:24:19.843Z,8.82
2022-09-07T09:26:53.914Z,7.32
2022-09-07T09:29:22.919Z,8.27
2022-09-07T09:31:49.832Z,8.05
2022-09-07T09:34:23.768Z,8.90
2022-09-07T09:36:58.749Z,7.90
2022-09-07T09:39:35.272Z,8.77
2022-09-07T09:42:23.920Z,7.93
2022-09-07T09:44:51.686Z,8.23
2022-09-07T09:47:32.890Z,7.28
2022-09-07T09:50:07.556Z,6.47
2022-09-07T09:52:45.365Z,6.35
2022-09-07T09:55:36.151Z,7.15
2022-09-07T10:01:35.916Z,7.30
2022-09-07T10:04:32.946Z,7.28
2022-09-07T10:07:14.829Z,5.88
2022-09-07T10:09:49.678Z,6.63
2022-09-07T10:12:33.223Z,5.43
2022-09-07T10:15:03.191Z,5.35
2022-09-07T10:17:40.668Z,6.18
2022-09-07T10:20:16.079Z,5.75
2022-09-07T10:23:02.521Z,4.78
2022-09-07T10:25:37.523Z,4.65
2022-09-07T10:28:13.888Z,4.07
2022-09-07T10:31:15.668Z,4.47
2022-09-07T10:34:28.688Z,4.03
2022-09-07T10:37:09.336Z,3.70
2022-09-07T10:39:42.546Z,3.13
2022-09-07T10:42:09.315Z,2.80
2022-09-07T10:45:03.160Z,2.53
2022-09-07T10:47:58.552Z,2.90
2022-09-07T10:51:17.880Z,1.90
2022-09-07T10:54:36.256Z,2.70
2022-09-07T10:57:49.377Z,3.47
2022-09-07T11:00:21.660Z,2.53
2022-09-07T11:06:21.756Z,2.22
2022-09-07T11:09:19.099Z,1.58
2022-09-07T11:12:07.369Z,2.00
2022-09-07T11:14:45.382Z,1.45
2022-09-07T11:17:26.451Z,1.80
2022-09-07T11:20:12.468Z,1.70
2022-09-07T11:22:47.380Z,1.73
2022-09-07T11:25:35.268Z,1.77
2022-09-07T11:28:25.430Z,1.60
2022-09-07T11:31:00.638Z,1.60
2022-09-07T11:34:23.789Z,1.35
2022-09-07T11:36:44.104Z,1.92
2022-09-07T11:39:23.493Z,2.10
2022-09-07T11:42:42.937Z,2.25
2022-09-07T11:45:02.839Z,1.90
2022-09-07T11:47:54.328Z,2.15
2022-09-07T11:50:24.389Z,2.15
2022-09-07T11:52:58.983Z,2.10
2022-09-07T11:55:33.736Z,2.20
2022-09-07T11:58:38.092Z,2.53
2022-09-07T12:02:12.460Z,2.10
2022-09-07T12:04:50.018Z,1.98
2022-09-07T12:07:42.299Z,1.50
2022-09-07T12:10:49.563Z,1.80
2022-09-07T12:14:12.562Z,1.98
2022-09-07T12:16:48.141Z,1.92
2022-09-07T12:19:28.460Z,2.00
2022-09-07T12:22:00.037Z,1.70
2022-09-07T12:25:09.688Z,1.40
2022-09-07T12:27:38.667Z,1.83
2022-09-07T12:30:05.359Z,1.75
2022-09-07T12:32:55.673Z,1.70
2022-09-07T12:35:47.304Z,1.80
2022-09-07T12:38:16.708Z,1.58
2022-09-07T12:40:58.908Z,1.50
2022-09-07T12:43:45.801Z,1.33
2022-09-07T12:46:44.832Z,1.65
2022-09-07T12:49:43.509Z,1.73
2022-09-07T12:52:47.831Z,1.40
2022-09-07T12:56:15.576Z,1.58
2022-09-07T12:58:53.328Z,1.95
2022-09-07T13:01:35.206Z,1.73
2022-09-07T13:04:41.173Z,1.60
2022-09-07T13:07:41.439Z,1.60
2022-09-07T13:10:31.360Z,1.50
2022-09-07T13:13:18.490Z,1.70
2022-09-07T13:16:12.100Z,1.63
2022-09-07T13:18:43.199Z,2.22
2022-09-07T13:21:10.919Z,1.90
2022-09-07T13:27:28.292Z,1.40
2022-09-07T13:30:15.560Z,1.50
2022-09-07T13:35:31.956Z,1.48
2022-09-07T13:38:04.763Z,1.60
2022-09-07T13:40:40.184Z,2.03
2022-09-07T13:43:20.193Z,1.75
2022-09-07T13:46:01.229Z,1.15
2022-09-07T13:49:01.135Z,1.40
2022-09-07T13:52:02.315Z,1.27
2022-09-07T13:55:02.851Z,1.23
2022-09-07T13:58:03.930Z,1.48
2022-09-07T14:00:31.233Z,1.40
2022-09-07T14:03:06.400Z,1.30
2022-09-07T14:05:33.484Z,1.20
2022-09-07T14:08:00.427Z,1.08
2022-09-07T14:10:28.163Z,0.98
2022-09-07T14:13:07.874Z,0.93
2022-09-07T14:15:41.220Z,1.20
2022-09-07T14:18:19.560Z,1.50
2022-09-07T14:20:52.991Z,1.27
2022-09-07T14:23:29.881Z,1.05
2022-09-07T14:26:21.919Z,0.90
2022-09-07T14:28:56.319Z,1.13
2022-09-07T14:31:25.455Z,1.15
2022-09-07T14:33:56.876Z,1.33
2022-09-07T14:36:45.351Z,1.20
2022-09-07T14:39:17.561Z,1.15
2022-09-07T14:41:45.831Z,1.55
2022-09-07T14:44:42.897Z,1.20
2022-09-07T14:47:33.838Z,0.90
2022-09-07T14:50:06.181Z,1.00
2022-09-07T14:53:33.200Z,1.10
2022-09-07T14:55:37.201Z,0.73
2022-09-07T14:58:15.887Z,0.73
2022-09-07T15:00:44.718Z,1.20
2022-09-07T15:03:32.139Z,0.93
2022-09-07T15:06:03.483Z,1.35
2022-09-07T15:08:43.075Z,1.10
2022-09-07T15:11:33.338Z,1.10
2022-09-07T15:14:09.172Z,0.98
2022-09-07T15:16:42.876Z,0.90
2022-09-07T15:19:16.050Z,1.30
2022-09-07T15:21:44.414Z,1.02
2022-09-07T15:24:12.299Z,1.05
2022-09-07T15:29:29.121Z,1.13
2022-09-07T15:32:03.883Z,1.35
2022-09-07T15:34:33.226Z,1.08
2022-09-07T15:37:02.414Z,1.17
2022-09-07T15:39:31.010Z,1.20
2022-09-07T15:42:00.575Z,1.50
2022-09-07T15:44:45.197Z,1.70
2022-09-07T15:49:59.146Z,1.58
2022-09-07T15:52:25.874Z,1.58
2022-09-07T15:54:52.666Z,1.40
2022-09-07T16:00:07.413Z,1.10
2022-09-07T16:05:30.779Z,1.38
2022-09-07T16:10:53.486Z,1.30
2022-09-07T16:13:23.737Z,1.20
2022-09-07T16:15:50.518Z,0.80
2022-09-07T16:18:18.316Z,1.10
2022-09-07T16:20:46.139Z,1.38
2022-09-07T16:23:15.610Z,1.30
2022-09-07T16:25:57.253Z,1.08
2022-09-07T16:28:25.507Z,1.00
2022-09-07T16:30:52.413Z,0.80
2022-09-07T16:33:19.206Z,1.30
2022-09-07T16:35:59.522Z,1.48
2022-09-07T16:38:44.978Z,1.20
2022-09-07T16:41:22.638Z,1.33
2022-09-07T16:43:50.071Z,1.05
2022-09-07T16:46:21.071Z,0.93
2022-09-07T16:48:49.790Z,0.90
2022-09-07T16:51:21.113Z,1.27
2022-09-07T16:53:50.418Z,1.38
2022-09-07T16:56:23.679Z,1.35
2022-09-07T16:58:59.860Z,1.58
2022-09-07T17:01:34.559Z,1.45
2022-09-07T17:04:05.614Z,1.30
2022-09-07T17:06:36.807Z,1.10
2022-09-07T17:09:04.597Z,1.15
2022-09-07T17:11:34.896Z,1.13
2022-09-07T17:14:02.266Z,1.50
2022-09-07T17:16:38.493Z,1.17
2022-09-07T17:21:55.443Z,1.10
2022-09-07T17:24:24.337Z,1.10
2022-09-07T17:26:51.182Z,1.00
2022-09-07T17:29:18.263Z,1.40
2022-09-07T17:34:32.092Z,1.23
2022-09-07T17:37:00.667Z,1.20
2022-09-07T17:39:28.510Z,1.10
2022-09-07T17:41:55.392Z,0.95
2022-09-07T17:44:23.295Z,1.23
2022-09-07T17:46:50.726Z,1.02
2022-09-07T17:49:17.787Z,1.00
2022-09-07T17:51:46.175Z,1.20
2022-09-07T17:54:17.320Z,1.23
2022-09-07T17:56:45.594Z,0.95
2022-09-07T18:02:00.925Z,1.30
2022-09-07T18:04:28.686Z,1.73
2022-09-07T18:06:56.124Z,1.35
2022-09-07T18:09:23.072Z,1.30
2022-09-07T18:11:50.572Z,0.95
2022-09-07T18:14:19.142Z,1.60
2022-09-07T18:16:49.213Z,1.58
2022-09-07T18:19:18.336Z,1.30
2022-09-07T18:21:46.249Z,1.33
2022-09-07T18:24:23.245Z,1.40
2022-09-07T18:26:53.323Z,1.50
2022-09-07T18:29:29.228Z,1.25
2022-09-07T18:31:58.969Z,1.27
2022-09-07T18:34:28.403Z,1.52
2022-09-07T18:36:55.512Z,1.50
2022-09-07T18:39:22.669Z,1.42
2022-09-07T18:41:49.448Z,1.25
2022-09-07T18:47:03.275Z,1.48
2022-09-07T18:49:30.040Z,1.40
2022-09-07T18:54:43.574Z,1.10
2022-09-07T18:57:10.558Z,1.50
2022-09-07T18:59:37.396Z,1.70
2022-09-07T19:02:06.372Z,1.42
2022-09-07T19:07:24.969Z,1.35
2022-09-07T19:09:56.161Z,1.58
2022-09-07T19:12:24.029Z,1.55
2022-09-07T19:14:50.924Z,1.48
2022-09-07T19:17:17.798Z,1.45
2022-09-07T19:19:44.645Z,1.77
2022-09-07T19:22:11.405Z,1.58
2022-09-07T19:24:38.247Z,1.85
2022-09-07T19:27:07.055Z,2.05
2022-09-07T19:29:33.961Z,2.30
2022-09-07T19:32:07.607Z,1.90
2022-09-07T19:34:37.132Z,1.63
2022-09-07T19:37:06.179Z,1.50
2022-09-07T19:39:33.402Z,1.90
2022-09-07T19:42:00.681Z,2.00
2022-09-07T19:44:27.873Z,1.65
2022-09-07T19:46:54.919Z,1.40
2022-09-07T19:49:21.866Z,1.80
2022-09-07T19:51:51.066Z,1.60
2022-09-07T19:54:18.312Z,1.65
2022-09-07T19:56:45.057Z,1.80
2022-09-07T19:59:12.751Z,2.10
2022-09-07T20:01:40.573Z,2.05
2022-09-07T20:04:17.388Z,1.67
2022-09-07T20:06:49.539Z,1.85
2022-09-07T20:09:18.569Z,2.35
2022-09-07T20:11:47.500Z,2.00
2022-09-07T20:14:16.352Z,2.20
2022-09-07T20:16:43.528Z,2.00
2022-09-07T20:19:14.469Z,2.00
2022-09-07T20:21:41.975Z,2.50
2022-09-07T20:24:11.507Z,1.83
2022-09-07T20:26:38.246Z,2.28
2022-09-07T20:29:26.253Z,2.03
2022-09-07T20:31:53.366Z,1.80
2022-09-07T20:34:20.214Z,1.92
2022-09-07T20:36:50.211Z,2.05
2022-09-07T20:39:17.530Z,2.13
2022-09-07T20:41:44.512Z,2.00
2022-09-07T20:44:11.402Z,2.30
2022-09-07T20:46:38.162Z,1.92
2022-09-07T20:49:05.364Z,1.98
2022-09-07T20:51:32.619Z,2.00
2022-09-07T20:53:59.743Z,2.35
2022-09-07T20:56:28.821Z,1.90
2022-09-07T20:58:59.966Z,1.38
2022-09-07T21:01:28.817Z,1.60
2022-09-07T21:03:58.167Z,1.70
2022-09-07T21:06:26.644Z,1.60
2022-09-07T21:08:54.370Z,2.05
2022-09-07T21:11:28.920Z,1.80
2022-09-07T21:14:10.208Z,1.70
2022-09-07T21:16:37.521Z,1.60
2022-09-07T21:19:07.984Z,2.03
2022-09-07T21:21:39.610Z,1.73
2022-09-07T21:24:15.288Z,1.70
2022-09-07T21:26:42.091Z,1.80
2022-09-07T21:29:17.883Z,1.70
2022-09-07T21:31:45.054Z,1.63
2022-09-07T21:34:12.095Z,1.85
2022-09-07T21:36:38.831Z,1.80
2022-09-07T21:39:06.789Z,1.70
2022-09-07T21:41:33.558Z,1.77
2022-09-07T21:44:03.399Z,1.92
2022-09-07T21:46:33.679Z,1.80
2022-09-07T21:49:01.044Z,1.83
2022-09-07T21:51:28.644Z,1.73
2022-09-07T21:53:59.362Z,1.70
2022-09-07T21:56:28.762Z,1.65
2022-09-07T21:58:58.064Z,1.98
2022-09-07T22:01:28.126Z,2.00
2022-09-07T22:03:59.155Z,1.77
2022-09-07T22:06:28.110Z,2.13
2022-09-07T22:08:55.972Z,2.20
2022-09-07T22:11:25.564Z,2.20
2022-09-07T22:14:01.705Z,2.95
2022-09-07T22:16:29.558Z,2.10
2022-09-07T22:18:56.499Z,2.92
2022-09-07T22:21:27.420Z,2.40
2022-09-07T22:24:01.665Z,2.10
2022-09-07T22:26:33.316Z,2.40
2022-09-07T22:29:00.186Z,2.60
2022-09-07T22:31:31.784Z,2.08
2022-09-07T22:34:00.491Z,2.30
2022-09-07T22:36:34.591Z,2.10
2022-09-07T22:39:05.304Z,1.67
2022-09-07T22:41:35.054Z,2.63
2022-09-07T22:44:02.020Z,1.80
2022-09-07T22:46:31.548Z,1.88
2022-09-07T22:48:58.929Z,1.60
2022-09-07T22:51:27.034Z,1.77
2022-09-07T22:53:55.656Z,1.70
2022-09-07T22:56:26.525Z,1.95
2022-09-07T22:58:59.761Z,1.70
2022-09-07T23:01:29.045Z,1.80
2022-09-07T23:03:56.891Z,2.10
2022-09-07T23:06:38.545Z,2.10
2022-09-07T23:09:15.963Z,1.92
2022-09-07T23:11:44.016Z,2.13
2022-09-07T23:14:21.944Z,2.10
2022-09-07T23:16:49.545Z,1.90
2022-09-07T23:19:19.495Z,2.15
2022-09-07T23:21:46.983Z,1.95
2022-09-07T23:24:17.853Z,2.00
2022-09-07T23:26:46.675Z,2.13
2022-09-07T23:29:14.824Z,2.30
2022-09-07T23:31:42.423Z,2.70
2022-09-07T23:34:09.639Z,2.42
2022-09-07T23:36:37.269Z,2.50
2022-09-07T23:39:04.238Z,2.63
2022-09-07T23:41:31.368Z,3.00
2022-09-07T23:43:58.520Z,2.50
2022-09-07T23:46:25.365Z,2.22
2022-09-07T23:48:52.288Z,2.50
2022-09-07T23:51:23.884Z,2.55
2022-09-07T23:53:52.696Z,2.35
2022-09-07T23:56:20.537Z,2.17
2022-09-07T23:58:47.665Z,2.63
